Maple Grove, Kentucky
Current Conditions -  °F | °C
As of 6:58 PM on Monday 20 Oct 2014 (Local Time) from KHOP Reporting Station
Clear Clear  
Wind Chill: 62°   Ceiling: Unl
Heat Index: 62°   Visibility: 10mi
Dew Point: 53°   Wind: 6mph
Humidity: 74%   Direction: 200°SSW
Pressure: 29.97"   Gusts: NA
Location:  36.8031°N, 87.8159°W
Report Text: KHOP 202358Z AUTO 20005KT 10SM CLR 16/12 A2997 RMK AO2 SLP150 T01640117 10205 20156 53005
Loading
Personal Weather Stations






























Interactive Weather Map
Tropical Storm Tracking
New forecast layout! Learn more

10-Day Weather Forecast

Advertisements
Track Severe Weather on mobile